createdAt,value
2024-02-07T00:02:20.957Z,3.27
2024-02-07T00:04:48.613Z,1.77
2024-02-07T00:07:16.299Z,1.43
2024-02-07T00:09:43.953Z,1.40
2024-02-07T00:12:11.460Z,1.20
2024-02-07T00:14:39.177Z,1.37
2024-02-07T00:17:07.206Z,1.30
2024-02-07T00:19:34.748Z,1.20
2024-02-07T00:22:04.562Z,1.07
2024-02-07T00:24:32.709Z,1.43
2024-02-07T00:27:00.280Z,1.10
2024-02-07T00:29:27.679Z,0.77
2024-02-07T00:31:55.194Z,1.40
2024-02-07T00:34:23.407Z,1.93
2024-02-07T00:36:51.277Z,1.27
2024-02-07T00:39:20.207Z,1.07
2024-02-07T00:41:47.790Z,1.30
2024-02-07T00:44:15.282Z,1.07
2024-02-07T00:46:42.735Z,1.10
2024-02-07T00:49:14.532Z,1.37
2024-02-07T00:51:42.492Z,1.17
2024-02-07T00:54:10.123Z,1.03
2024-02-07T00:56:37.688Z,1.00
2024-02-07T00:59:05.237Z,1.10
2024-02-07T01:01:33.025Z,1.00
2024-02-07T01:04:00.917Z,1.23
2024-02-07T01:06:28.524Z,1.20
2024-02-07T01:08:56.081Z,1.17
2024-02-07T01:11:23.577Z,0.90
2024-02-07T01:13:51.219Z,1.00
2024-02-07T01:16:18.957Z,1.13
2024-02-07T01:18:46.873Z,1.00
2024-02-07T01:21:14.596Z,0.80
2024-02-07T01:23:48.978Z,0.93
2024-02-07T01:26:17.782Z,1.00
2024-02-07T01:28:45.281Z,1.00
2024-02-07T01:31:12.830Z,1.00
2024-02-07T01:33:40.641Z,1.00
2024-02-07T01:36:08.312Z,1.00
2024-02-07T01:38:35.856Z,0.93
2024-02-07T01:41:03.997Z,1.00
2024-02-07T01:43:35.324Z,0.70
2024-02-07T01:46:03.477Z,1.40
2024-02-07T01:48:31.445Z,0.67
2024-02-07T01:50:59.850Z,1.43
2024-02-07T01:53:28.473Z,1.27
2024-02-07T01:55:57.111Z,1.10
2024-02-07T01:58:28.375Z,1.30
2024-02-07T02:00:56.310Z,1.10
2024-02-07T02:03:23.809Z,1.30
2024-02-07T02:05:52.084Z,1.63
2024-02-07T02:08:19.618Z,1.83
2024-02-07T02:10:48.512Z,1.73
2024-02-07T02:13:16.078Z,1.60
2024-02-07T02:15:45.800Z,1.80
2024-02-07T02:18:13.327Z,1.57
2024-02-07T02:20:43.365Z,1.27
2024-02-07T02:23:17.066Z,1.57
2024-02-07T02:26:03.348Z,1.57
2024-02-07T02:29:06.025Z,1.80
2024-02-07T02:31:34.931Z,1.30
2024-02-07T02:34:04.247Z,1.37
2024-02-07T02:36:31.867Z,1.57
2024-02-07T02:38:59.509Z,1.43
2024-02-07T02:41:27.024Z,1.70
2024-02-07T02:43:55.156Z,1.63
2024-02-07T02:46:22.607Z,1.20
2024-02-07T02:48:50.179Z,1.63
2024-02-07T02:51:17.708Z,2.00
2024-02-07T02:53:45.271Z,1.20
2024-02-07T02:56:13.679Z,1.40
2024-02-07T02:58:44.220Z,1.60
2024-02-07T03:01:13.374Z,1.63
2024-02-07T03:03:46.167Z,1.83
2024-02-07T03:06:30.475Z,1.20
2024-02-07T03:09:09.785Z,1.17
2024-02-07T03:11:37.869Z,1.30
2024-02-07T03:14:07.759Z,1.27
2024-02-07T03:16:35.619Z,1.43
2024-02-07T03:19:03.300Z,1.13
2024-02-07T03:21:31.671Z,0.93
2024-02-07T03:23:59.397Z,0.93
2024-02-07T03:26:27.513Z,1.30
2024-02-07T03:28:55.021Z,1.07
2024-02-07T03:31:22.534Z,0.97
2024-02-07T03:33:50.217Z,1.17
2024-02-07T03:36:17.959Z,0.87
2024-02-07T03:38:45.659Z,1.00
2024-02-07T03:41:13.250Z,1.00
2024-02-07T03:43:41.128Z,0.80
2024-02-07T03:46:11.511Z,0.90
2024-02-07T03:48:41.665Z,1.20
2024-02-07T03:51:10.095Z,1.10
2024-02-07T03:53:37.824Z,0.97
2024-02-07T03:56:05.639Z,1.30
2024-02-07T03:58:33.660Z,1.03
2024-02-07T04:01:01.323Z,1.27
2024-02-07T04:03:29.005Z,0.87
2024-02-07T04:05:57.586Z,0.87
2024-02-07T04:08:25.307Z,1.23
2024-02-07T04:10:54.046Z,1.00
2024-02-07T04:13:21.826Z,1.30
2024-02-07T04:16:08.593Z,1.17
2024-02-07T04:18:55.656Z,1.17
2024-02-07T04:21:42.021Z,1.23
2024-02-07T04:24:28.221Z,1.07
2024-02-07T04:27:17.141Z,0.90
2024-02-07T04:30:04.894Z,0.97
2024-02-07T04:32:51.289Z,1.20
2024-02-07T04:35:37.458Z,0.97
2024-02-07T04:38:23.637Z,1.10
2024-02-07T04:41:09.959Z,1.10
2024-02-07T04:43:56.380Z,1.40
2024-02-07T04:46:42.842Z,1.33
2024-02-07T04:49:29.296Z,1.20
2024-02-07T04:52:15.671Z,0.90
2024-02-07T04:55:01.747Z,1.17
2024-02-07T04:57:47.649Z,1.03
2024-02-07T05:00:34.180Z,1.00
2024-02-07T05:03:20.628Z,1.10
2024-02-07T05:06:06.887Z,1.00
2024-02-07T05:08:53.123Z,0.87
2024-02-07T05:11:39.576Z,1.20
2024-02-07T05:14:25.766Z,1.10
2024-02-07T05:16:53.502Z,0.93
2024-02-07T05:19:21.367Z,1.00
2024-02-07T05:21:48.964Z,1.10
2024-02-07T05:24:17.881Z,1.10
2024-02-07T05:26:45.370Z,1.00
2024-02-07T05:29:18.027Z,1.30
2024-02-07T05:31:46.380Z,0.93
2024-02-07T05:34:14.522Z,0.97
2024-02-07T05:36:42.151Z,0.93
2024-02-07T05:39:09.598Z,0.83
2024-02-07T05:41:37.098Z,0.90
2024-02-07T05:44:04.645Z,0.90
2024-02-07T05:46:32.240Z,1.47
2024-02-07T05:49:00.524Z,0.70
2024-02-07T05:51:27.987Z,1.17
2024-02-07T05:53:55.400Z,0.70
2024-02-07T05:56:23.316Z,0.83
2024-02-07T05:58:52.679Z,1.27
2024-02-07T06:01:23.325Z,1.30
2024-02-07T06:03:51.990Z,0.77
2024-02-07T06:06:20.221Z,1.07
2024-02-07T06:08:50.945Z,0.80
2024-02-07T06:11:18.473Z,0.97
2024-02-07T06:13:46.211Z,0.90
2024-02-07T06:16:13.755Z,0.67
2024-02-07T06:18:41.288Z,0.70
2024-02-07T06:21:08.882Z,0.63
2024-02-07T06:23:36.383Z,1.07
2024-02-07T06:26:04.100Z,0.87
2024-02-07T06:28:31.786Z,0.87
2024-02-07T06:30:59.270Z,0.90
2024-02-07T06:33:26.847Z,0.90
2024-02-07T06:35:54.568Z,0.83
2024-02-07T06:38:21.985Z,0.87
2024-02-07T06:40:50.256Z,0.63
2024-02-07T06:43:17.939Z,0.93
2024-02-07T06:45:45.467Z,0.63
2024-02-07T06:48:13.073Z,0.60
2024-02-07T06:50:41.103Z,0.90
2024-02-07T06:53:11.235Z,0.90
2024-02-07T06:55:40.769Z,0.60
2024-02-07T06:58:08.285Z,0.90
2024-02-07T07:00:35.777Z,0.80
2024-02-07T07:03:03.227Z,0.70
2024-02-07T07:05:30.815Z,1.17
2024-02-07T07:07:58.381Z,0.80
2024-02-07T07:10:26.294Z,1.00
2024-02-07T07:12:53.822Z,0.80
2024-02-07T07:15:30.216Z,1.07
2024-02-07T07:18:01.983Z,0.80
2024-02-07T07:20:32.856Z,0.63
2024-02-07T07:23:12.007Z,0.50
2024-02-07T07:25:43.637Z,0.70
2024-02-07T07:28:11.210Z,0.53
2024-02-07T07:30:39.613Z,0.80
2024-02-07T07:33:07.155Z,0.87
2024-02-07T07:35:34.837Z,0.70
2024-02-07T07:38:05.721Z,0.80
2024-02-07T07:40:34.166Z,0.97
2024-02-07T07:43:01.696Z,1.10
2024-02-07T07:45:29.180Z,0.70
2024-02-07T07:47:57.866Z,0.60
2024-02-07T07:50:25.646Z,0.70
2024-02-07T07:52:53.264Z,0.53
2024-02-07T07:55:20.914Z,0.73
2024-02-07T07:57:48.871Z,0.60
2024-02-07T08:00:16.587Z,0.70
2024-02-07T08:03:08.982Z,0.80
2024-02-07T08:05:37.387Z,0.73
2024-02-07T08:08:05.321Z,0.87
2024-02-07T08:10:32.900Z,0.60
2024-02-07T08:13:00.302Z,0.60
2024-02-07T08:15:27.853Z,0.77
2024-02-07T08:17:55.477Z,1.13
2024-02-07T08:20:23.819Z,0.60
2024-02-07T08:22:51.272Z,0.77
2024-02-07T08:25:18.822Z,0.70
2024-02-07T08:27:46.382Z,0.90
2024-02-07T08:30:14.203Z,0.60
2024-02-07T08:32:41.872Z,0.80
2024-02-07T08:35:09.660Z,0.70
2024-02-07T08:37:37.552Z,0.90
2024-02-07T08:40:05.053Z,0.90
2024-02-07T08:42:32.534Z,0.60
2024-02-07T08:44:59.912Z,0.70
2024-02-07T08:47:27.438Z,0.77
2024-02-07T08:49:55.193Z,0.77
2024-02-07T08:52:22.638Z,0.80
2024-02-07T08:54:50.169Z,0.80
2024-02-07T08:57:17.546Z,0.50
2024-02-07T08:59:48.685Z,0.63
2024-02-07T09:02:16.187Z,0.80
2024-02-07T09:04:43.772Z,0.67
2024-02-07T09:07:11.303Z,0.80
2024-02-07T09:09:39.066Z,0.60
2024-02-07T09:12:06.760Z,0.53
2024-02-07T09:14:34.157Z,0.60
2024-02-07T09:17:01.675Z,0.67
2024-02-07T09:19:29.262Z,0.60
2024-02-07T09:22:20.425Z,0.70
2024-02-07T09:24:47.876Z,0.70
2024-02-07T09:27:15.467Z,0.70
2024-02-07T09:29:42.957Z,0.70
2024-02-07T09:32:10.404Z,0.80
2024-02-07T09:34:38.095Z,0.50
2024-02-07T09:37:05.803Z,0.60
2024-02-07T09:39:33.246Z,0.70
2024-02-07T09:42:01.684Z,0.80
2024-02-07T09:44:30.024Z,0.60
2024-02-07T09:46:59.286Z,0.80
2024-02-07T09:49:28.227Z,0.90
2024-02-07T09:51:56.704Z,0.80
2024-02-07T09:54:24.489Z,0.60
2024-02-07T09:56:53.014Z,0.50
2024-02-07T09:59:22.056Z,0.50
2024-02-07T10:01:49.742Z,0.50
2024-02-07T10:04:30.563Z,0.60
2024-02-07T10:06:59.284Z,0.77
2024-02-07T10:09:31.621Z,0.50
2024-02-07T10:12:02.741Z,0.67
2024-02-07T10:14:32.503Z,0.40
2024-02-07T10:17:00.156Z,0.50
2024-02-07T10:19:27.930Z,0.60
2024-02-07T10:21:56.420Z,0.50
2024-02-07T10:24:23.933Z,0.70
2024-02-07T10:26:51.902Z,0.50
2024-02-07T10:29:19.959Z,0.70
2024-02-07T10:31:53.608Z,0.60
2024-02-07T10:34:21.716Z,0.30
2024-02-07T10:36:57.704Z,0.87
2024-02-07T10:39:25.215Z,0.80
2024-02-07T10:41:52.763Z,0.70
2024-02-07T10:44:20.354Z,0.63
2024-02-07T10:46:47.773Z,0.50
2024-02-07T10:49:15.739Z,0.77
2024-02-07T10:51:44.851Z,0.67
2024-02-07T10:54:12.284Z,0.47
2024-02-07T10:56:39.977Z,0.50
2024-02-07T10:59:07.632Z,0.80
2024-02-07T11:01:35.422Z,0.43
2024-02-07T11:04:02.992Z,0.80
2024-02-07T11:06:30.652Z,0.70
2024-02-07T11:08:58.760Z,0.80
2024-02-07T11:11:27.399Z,0.63
2024-02-07T11:13:55.446Z,0.60
2024-02-07T11:16:23.057Z,0.90
2024-02-07T11:18:50.498Z,0.63
2024-02-07T11:21:32.689Z,0.73
2024-02-07T11:24:22.958Z,0.67
2024-02-07T11:26:51.694Z,0.57
2024-02-07T11:29:19.287Z,0.70
2024-02-07T11:31:48.760Z,0.93
2024-02-07T11:34:17.489Z,0.57
2024-02-07T11:36:54.044Z,0.87
2024-02-07T11:39:21.660Z,0.70
2024-02-07T11:41:50.171Z,0.70
2024-02-07T11:44:17.685Z,0.60
2024-02-07T11:46:52.214Z,0.80
2024-02-07T11:49:19.956Z,0.70
2024-02-07T11:51:47.808Z,0.60
2024-02-07T11:54:22.145Z,0.60
2024-02-07T11:56:56.709Z,0.60
2024-02-07T11:59:24.596Z,0.80
2024-02-07T12:02:20.374Z,0.77
2024-02-07T12:04:48.186Z,0.27
2024-02-07T12:07:16.155Z,0.83
2024-02-07T12:09:43.858Z,0.63
2024-02-07T12:12:14.936Z,0.70
2024-02-07T12:14:42.401Z,0.70
2024-02-07T12:17:10.348Z,0.67
2024-02-07T12:19:38.328Z,0.70
2024-02-07T12:22:05.986Z,0.83
2024-02-07T12:24:34.836Z,0.60
2024-02-07T12:27:17.068Z,0.53
2024-02-07T12:29:50.962Z,0.60
2024-02-07T12:32:18.603Z,0.60
2024-02-07T12:34:46.674Z,0.60
2024-02-07T12:37:15.824Z,0.80
2024-02-07T12:39:45.929Z,0.73
2024-02-07T12:42:17.068Z,0.60
2024-02-07T12:44:45.871Z,0.70
2024-02-07T12:47:15.811Z,0.53
2024-02-07T12:49:44.033Z,0.67
2024-02-07T12:52:14.359Z,0.60
2024-02-07T12:54:42.267Z,0.70
2024-02-07T12:57:22.040Z,0.60
2024-02-07T12:59:49.578Z,0.70
2024-02-07T13:02:17.224Z,0.80
2024-02-07T13:04:45.725Z,0.70
2024-02-07T13:07:13.542Z,0.70
2024-02-07T13:09:41.268Z,0.70
2024-02-07T13:12:18.691Z,0.70
2024-02-07T13:14:54.783Z,0.90
2024-02-07T13:17:22.725Z,0.80
2024-02-07T13:19:50.235Z,0.70
2024-02-07T13:22:18.308Z,0.70
2024-02-07T13:24:46.025Z,0.70
2024-02-07T13:27:13.744Z,0.60
2024-02-07T13:29:43.030Z,0.77
2024-02-07T13:32:14.993Z,0.67
2024-02-07T13:34:43.341Z,0.80
2024-02-07T13:37:10.998Z,0.70
2024-02-07T13:39:38.399Z,0.60
2024-02-07T13:42:05.981Z,1.00
2024-02-07T13:44:34.091Z,0.80
2024-02-07T13:47:04.582Z,0.90
2024-02-07T13:49:32.583Z,0.80
2024-02-07T13:52:01.608Z,0.60
2024-02-07T13:54:29.062Z,0.70
2024-02-07T13:56:57.480Z,0.60
2024-02-07T13:59:25.063Z,0.80
2024-02-07T14:01:52.556Z,0.83
2024-02-07T14:04:20.229Z,0.67
2024-02-07T14:06:47.873Z,0.60
2024-02-07T14:09:15.482Z,0.53
2024-02-07T14:11:43.274Z,0.60
2024-02-07T14:14:11.066Z,0.87
2024-02-07T14:16:38.945Z,0.53
2024-02-07T14:19:06.884Z,0.70
2024-02-07T14:21:34.582Z,0.60
2024-02-07T14:24:02.059Z,0.70
2024-02-07T14:26:29.611Z,0.70
2024-02-07T14:28:57.078Z,0.70
2024-02-07T14:31:24.647Z,0.57
2024-02-07T14:33:52.118Z,0.70
2024-02-07T14:36:20.799Z,0.60
2024-02-07T14:38:48.262Z,0.70
2024-02-07T14:41:15.761Z,0.63
2024-02-07T14:43:46.249Z,0.80
2024-02-07T14:46:16.609Z,0.90
2024-02-07T14:48:45.562Z,0.87
2024-02-07T14:51:13.727Z,0.50
2024-02-07T14:53:41.672Z,0.83
2024-02-07T14:56:10.568Z,0.60
2024-02-07T14:58:38.605Z,0.60
2024-02-07T15:01:06.160Z,0.60
2024-02-07T15:03:34.046Z,0.53
2024-02-07T15:06:01.629Z,0.70
2024-02-07T15:08:29.145Z,0.70
2024-02-07T15:10:56.712Z,0.60
2024-02-07T15:13:24.663Z,0.70
2024-02-07T15:15:52.071Z,0.50
2024-02-07T15:18:19.526Z,0.60
2024-02-07T15:20:47.199Z,0.70
2024-02-07T15:23:15.394Z,0.60
2024-02-07T15:25:49.208Z,0.53
2024-02-07T15:28:19.204Z,0.43
2024-02-07T15:30:49.103Z,0.60
2024-02-07T15:33:16.681Z,0.50
2024-02-07T15:35:44.538Z,0.73
2024-02-07T15:38:14.237Z,0.63
2024-02-07T15:40:42.052Z,0.50
2024-02-07T15:43:09.553Z,0.40
2024-02-07T15:45:39.536Z,0.47
2024-02-07T15:48:10.307Z,0.70
2024-02-07T15:50:38.209Z,0.50
2024-02-07T15:53:06.012Z,0.50
2024-02-07T15:55:51.781Z,0.60
2024-02-07T15:58:19.910Z,0.53
2024-02-07T16:00:47.448Z,0.50
2024-02-07T16:03:14.986Z,0.40
2024-02-07T16:05:42.555Z,0.40
2024-02-07T16:08:10.489Z,0.60
2024-02-07T16:10:38.130Z,0.40
2024-02-07T16:13:05.731Z,0.40
2024-02-07T16:15:33.787Z,0.60
2024-02-07T16:18:01.500Z,0.43
2024-02-07T16:20:29.728Z,0.50
2024-02-07T16:22:57.392Z,0.50
2024-02-07T16:25:25.034Z,0.70
2024-02-07T16:27:52.445Z,0.50
2024-02-07T16:30:21.035Z,0.60
2024-02-07T16:32:49.515Z,0.57
2024-02-07T16:35:17.249Z,0.50
2024-02-07T16:37:44.920Z,0.40
2024-02-07T16:40:12.748Z,0.50
2024-02-07T16:42:40.278Z,0.30
2024-02-07T16:45:08.748Z,0.40
2024-02-07T16:47:36.296Z,0.50
2024-02-07T16:50:04.138Z,0.57
2024-02-07T16:52:31.843Z,0.60
2024-02-07T16:55:00.599Z,0.60
2024-02-07T16:57:28.067Z,0.30
2024-02-07T16:59:55.445Z,0.60
2024-02-07T17:02:22.968Z,0.40
2024-02-07T17:04:50.473Z,0.57
2024-02-07T17:07:18.207Z,0.50
2024-02-07T17:09:46.077Z,0.33
2024-02-07T17:12:13.890Z,0.70
2024-02-07T17:14:41.674Z,0.60
2024-02-07T17:17:09.183Z,0.50
2024-02-07T17:19:36.710Z,0.50
2024-02-07T17:22:04.365Z,0.43
2024-02-07T17:24:31.771Z,0.50
2024-02-07T17:27:01.685Z,0.50
2024-02-07T17:29:29.902Z,0.60
2024-02-07T17:31:57.895Z,0.40
2024-02-07T17:34:25.526Z,0.47
2024-02-07T17:36:55.067Z,0.50
2024-02-07T17:39:24.095Z,0.57
2024-02-07T17:41:51.636Z,0.50
2024-02-07T17:44:19.740Z,0.50
2024-02-07T17:46:47.320Z,0.50
2024-02-07T17:49:15.025Z,0.70
2024-02-07T17:51:45.550Z,0.57
2024-02-07T17:54:13.066Z,0.60
2024-02-07T17:56:40.653Z,0.50
2024-02-07T17:59:08.109Z,0.70
2024-02-07T18:01:35.698Z,0.83
2024-02-07T18:04:03.306Z,0.50
2024-02-07T18:06:30.932Z,0.70
2024-02-07T18:08:58.389Z,0.60
2024-02-07T18:11:28.182Z,0.90
2024-02-07T18:13:55.764Z,0.63
2024-02-07T18:16:24.963Z,0.57
2024-02-07T18:18:54.067Z,0.60
2024-02-07T18:21:21.693Z,0.50
2024-02-07T18:23:50.311Z,0.60
2024-02-07T18:26:18.717Z,0.60
2024-02-07T18:28:46.379Z,0.30
2024-02-07T18:31:14.153Z,0.50
2024-02-07T18:33:41.932Z,0.67
2024-02-07T18:36:11.335Z,0.50
2024-02-07T18:38:38.790Z,0.37
2024-02-07T18:41:06.848Z,0.40
2024-02-07T18:43:34.590Z,0.40
2024-02-07T18:46:02.398Z,0.60
2024-02-07T18:48:29.905Z,0.70
2024-02-07T18:50:57.735Z,0.50
2024-02-07T18:53:25.524Z,0.50
2024-02-07T18:55:53.091Z,0.70
2024-02-07T18:58:23.881Z,0.93
2024-02-07T19:00:51.533Z,0.60
2024-02-07T19:03:19.068Z,0.60
2024-02-07T19:05:46.782Z,0.30
2024-02-07T19:08:14.941Z,0.50
2024-02-07T19:10:42.368Z,0.73
2024-02-07T19:13:09.945Z,0.53
2024-02-07T19:15:37.355Z,0.77
2024-02-07T19:18:05.007Z,0.70
2024-02-07T19:20:33.057Z,0.67
2024-02-07T19:23:00.805Z,0.50
2024-02-07T19:25:28.792Z,0.40
2024-02-07T19:27:56.434Z,0.70
2024-02-07T19:30:24.033Z,0.67
2024-02-07T19:32:51.582Z,0.80
2024-02-07T19:35:19.325Z,0.70
2024-02-07T19:37:47.062Z,0.70
2024-02-07T19:40:14.695Z,0.70
2024-02-07T19:42:42.319Z,1.17
2024-02-07T19:45:10.007Z,0.70
2024-02-07T19:47:37.533Z,0.70
2024-02-07T19:50:05.640Z,0.60
2024-02-07T19:52:36.292Z,0.80
2024-02-07T19:55:29.131Z,0.63
2024-02-07T19:57:56.966Z,0.70
2024-02-07T20:00:24.744Z,0.87
2024-02-07T20:02:52.247Z,0.70
2024-02-07T20:05:20.220Z,0.87
2024-02-07T20:07:47.953Z,0.80
2024-02-07T20:10:15.453Z,0.90
2024-02-07T20:12:42.995Z,1.00
2024-02-07T20:17:53.922Z,0.60
2024-02-07T20:20:21.858Z,0.87
2024-02-07T20:22:49.929Z,0.63
2024-02-07T20:25:17.494Z,0.90
2024-02-07T20:27:45.126Z,0.50
2024-02-07T20:30:12.856Z,0.90
2024-02-07T20:32:40.990Z,0.83
2024-02-07T20:35:08.887Z,0.80
2024-02-07T20:37:36.582Z,0.87
2024-02-07T20:40:04.350Z,1.00
2024-02-07T20:42:31.985Z,0.80
2024-02-07T20:44:59.687Z,1.07
2024-02-07T20:47:28.420Z,0.83
2024-02-07T20:49:56.476Z,1.00
2024-02-07T20:52:24.109Z,1.20
2024-02-07T20:54:51.785Z,0.80
2024-02-07T20:57:19.581Z,0.70
2024-02-07T20:59:47.149Z,0.87
2024-02-07T21:02:14.721Z,0.90
2024-02-07T21:04:42.346Z,0.90
2024-02-07T21:07:10.357Z,0.90
2024-02-07T21:09:37.822Z,0.80
2024-02-07T21:12:05.425Z,0.80
2024-02-07T21:14:36.145Z,0.80
2024-02-07T21:17:04.717Z,0.80
2024-02-07T21:19:32.377Z,0.80
2024-02-07T21:22:00.232Z,0.97
2024-02-07T21:24:27.799Z,1.17
2024-02-07T21:26:55.257Z,0.70
2024-02-07T21:29:22.676Z,0.77
2024-02-07T21:31:50.288Z,0.90
2024-02-07T21:34:18.492Z,0.80
2024-02-07T21:36:46.055Z,0.90
2024-02-07T21:39:14.130Z,0.90
2024-02-07T21:41:41.594Z,0.60
2024-02-07T21:44:09.263Z,0.97
2024-02-07T21:46:37.106Z,1.13
2024-02-07T21:49:04.639Z,0.90
2024-02-07T21:51:32.091Z,1.13
2024-02-07T21:53:59.488Z,1.00
2024-02-07T21:56:26.941Z,1.07
2024-02-07T21:58:54.425Z,0.90
2024-02-07T22:01:21.849Z,0.93
2024-02-07T22:03:49.344Z,0.97
2024-02-07T22:06:16.993Z,1.00
2024-02-07T22:08:44.834Z,0.70
2024-02-07T22:11:12.513Z,0.83
2024-02-07T22:13:40.347Z,0.83
2024-02-07T22:16:07.827Z,0.90
2024-02-07T22:18:35.252Z,0.97
2024-02-07T22:21:03.025Z,1.07
2024-02-07T22:23:31.138Z,1.20
2024-02-07T22:25:58.645Z,0.97
2024-02-07T22:28:26.188Z,0.73
2024-02-07T22:30:53.700Z,0.80
2024-02-07T22:33:21.199Z,0.80
2024-02-07T22:35:48.726Z,0.80
2024-02-07T22:38:16.290Z,1.00
2024-02-07T22:40:43.718Z,0.90
2024-02-07T22:43:11.183Z,0.80
2024-02-07T22:45:40.051Z,0.97
2024-02-07T22:48:07.910Z,0.80
2024-02-07T22:50:35.775Z,0.80
2024-02-07T22:53:03.387Z,0.63
2024-02-07T22:55:30.903Z,0.80
2024-02-07T22:57:58.392Z,0.90
2024-02-07T23:00:25.921Z,0.57
2024-02-07T23:02:56.183Z,0.60
2024-02-07T23:05:23.954Z,0.70
2024-02-07T23:07:51.486Z,0.67
2024-02-07T23:10:19.042Z,0.87
2024-02-07T23:12:46.629Z,0.93
2024-02-07T23:15:14.207Z,0.80
2024-02-07T23:17:41.925Z,0.70
2024-02-07T23:20:10.006Z,1.07
2024-02-07T23:22:37.868Z,0.73
2024-02-07T23:25:05.995Z,0.90
2024-02-07T23:27:33.619Z,1.23
2024-02-07T23:30:01.477Z,0.83
2024-02-07T23:32:29.027Z,0.80
2024-02-07T23:34:56.711Z,1.00
2024-02-07T23:37:24.287Z,0.90
2024-02-07T23:39:52.831Z,1.03
2024-02-07T23:42:20.281Z,1.07
2024-02-07T23:44:47.710Z,0.90
2024-02-07T23:47:15.255Z,1.03
2024-02-07T23:49:42.769Z,1.00
2024-02-07T23:52:10.387Z,1.00
2024-02-07T23:54:38.080Z,1.10
2024-02-07T23:57:05.720Z,0.90
2024-02-07T23:59:34.611Z,1.10
